createdAt,value
2019-04-10T00:01:02.112Z,52.11
2019-04-10T00:03:39.096Z,51.81
2019-04-10T00:06:09.279Z,52.24
2019-04-10T00:08:39.901Z,52.54
2019-04-10T00:11:10.590Z,52.25
2019-04-10T00:13:41.348Z,52.26
2019-04-10T00:16:13.964Z,52.86
2019-04-10T00:18:44.492Z,52.62
2019-04-10T00:21:25.193Z,52.05
2019-04-10T00:23:55.926Z,52.57
2019-04-10T00:26:27.913Z,53.14
2019-04-10T00:28:58.540Z,53.12
2019-04-10T00:31:30.180Z,52.70
2019-04-10T00:34:07.388Z,53.56
2019-04-10T00:36:37.996Z,53.33
2019-04-10T00:39:22.311Z,53.18
2019-04-10T00:41:53.148Z,52.86
2019-04-10T00:44:23.826Z,52.68
2019-04-10T00:46:54.843Z,52.86
2019-04-10T00:49:26.022Z,52.71
2019-04-10T00:51:57.893Z,52.80
2019-04-10T00:54:28.596Z,52.52
2019-04-10T00:56:59.246Z,52.90
2019-04-10T00:59:37.089Z,53.08
2019-04-10T01:02:08.053Z,52.93
2019-04-10T01:04:49.105Z,53.06
2019-04-10T01:07:36.487Z,52.39
2019-04-10T01:09:58.973Z,51.94
2019-04-10T01:12:34.501Z,52.10
2019-04-10T01:15:06.626Z,52.05
2019-04-10T01:17:42.689Z,52.38
2019-04-10T01:20:15.622Z,52.69
2019-04-10T01:22:47.704Z,52.38
2019-04-10T01:25:18.677Z,52.78
2019-04-10T01:27:50.035Z,52.58
2019-04-10T01:30:20.910Z,52.69
2019-04-10T01:32:52.590Z,52.31
2019-04-10T01:35:26.544Z,52.60
2019-04-10T01:38:06.464Z,53.51
2019-04-10T01:40:37.411Z,53.58
2019-04-10T01:43:12.665Z,53.22
2019-04-10T01:45:41.772Z,53.94
2019-04-10T01:48:17.477Z,54.16
2019-04-10T01:50:46.836Z,54.07
2019-04-10T01:53:28.082Z,53.63
2019-04-10T01:55:59.645Z,53.67
2019-04-10T01:58:30.299Z,53.71
2019-04-10T02:01:02.655Z,53.31
2019-04-10T02:03:34.079Z,53.51
2019-04-10T02:06:07.150Z,53.02
2019-04-10T02:08:38.234Z,54.31
2019-04-10T02:11:25.976Z,53.30
2019-04-10T02:13:56.865Z,52.87
2019-04-10T02:16:28.686Z,53.75
2019-04-10T02:18:59.634Z,53.27
2019-04-10T02:21:30.437Z,52.74
2019-04-10T02:24:02.917Z,53.08
2019-04-10T02:26:34.636Z,53.11
2019-04-10T02:29:05.340Z,53.60
2019-04-10T02:31:36.597Z,54.28
2019-04-10T02:34:09.063Z,55.02
2019-04-10T02:36:39.953Z,54.72
2019-04-10T02:39:21.845Z,55.43
2019-04-10T02:41:58.246Z,54.98
2019-04-10T02:44:30.588Z,54.81
2019-04-10T02:47:02.170Z,54.53
2019-04-10T02:49:40.377Z,54.84
2019-04-10T02:52:12.845Z,55.08
2019-04-10T02:54:43.647Z,55.59
2019-04-10T02:57:17.250Z,55.56
2019-04-10T02:59:48.030Z,55.66
2019-04-10T03:02:20.120Z,55.60
2019-04-10T03:04:51.044Z,55.38
2019-04-10T03:07:22.101Z,54.95
2019-04-10T03:10:08.788Z,55.63
2019-04-10T03:12:30.147Z,55.61
2019-04-10T03:15:03.446Z,54.84
2019-04-10T03:17:34.856Z,55.24
2019-04-10T03:20:07.846Z,55.60
2019-04-10T03:22:47.206Z,55.43
2019-04-10T03:25:19.326Z,55.56
2019-04-10T03:27:52.515Z,55.56
2019-04-10T03:30:39.454Z,55.07
2019-04-10T03:33:31.114Z,54.93
2019-04-10T03:36:12.255Z,56.07
2019-04-10T03:38:55.322Z,56.63
2019-04-10T03:41:28.183Z,57.58
2019-04-10T03:43:58.881Z,57.43
2019-04-10T03:46:29.767Z,56.37
2019-04-10T03:49:01.234Z,56.50
2019-04-10T03:51:32.443Z,57.23
2019-04-10T03:54:03.065Z,57.01
2019-04-10T03:56:33.946Z,57.29
2019-04-10T03:59:04.638Z,57.50
2019-04-10T04:01:43.095Z,56.56
2019-04-10T04:04:13.707Z,56.96
2019-04-10T04:06:56.406Z,56.58
2019-04-10T04:09:29.301Z,56.87
2019-04-10T04:12:00.198Z,57.47
2019-04-10T04:14:30.916Z,56.44
2019-04-10T04:17:01.918Z,56.83
2019-04-10T04:19:37.951Z,56.60
2019-04-10T04:22:08.591Z,56.84
2019-04-10T04:24:44.045Z,57.27
2019-04-10T04:27:15.291Z,57.23
2019-04-10T04:29:46.219Z,56.52
2019-04-10T04:32:17.641Z,56.58
2019-04-10T04:34:49.786Z,56.62
2019-04-10T04:37:20.905Z,57.04
2019-04-10T04:39:52.236Z,57.20
2019-04-10T04:42:30.707Z,57.34
2019-04-10T04:45:03.664Z,57.69
2019-04-10T04:47:34.346Z,58.14
2019-04-10T04:50:05.732Z,57.56
2019-04-10T04:52:39.097Z,57.31
2019-04-10T04:55:19.778Z,57.19
2019-04-10T04:57:50.662Z,56.72
2019-04-10T05:00:21.594Z,57.83
2019-04-10T05:02:53.714Z,58.12
2019-04-10T05:05:25.272Z,57.78
2019-04-10T05:08:00.029Z,58.70
2019-04-10T05:10:29.368Z,59.39
2019-04-10T05:13:02.073Z,57.84
2019-04-10T05:15:33.256Z,58.19
2019-04-10T05:18:10.376Z,57.57
2019-04-10T05:20:47.301Z,56.73
2019-04-10T05:23:13.964Z,56.93
2019-04-10T05:25:45.664Z,57.10
2019-04-10T05:28:16.479Z,57.19
2019-04-10T05:30:47.470Z,56.50
2019-04-10T05:33:20.409Z,57.02
2019-04-10T05:35:51.204Z,56.95
2019-04-10T05:38:24.966Z,57.11
2019-04-10T05:41:01.870Z,57.41
2019-04-10T05:43:32.471Z,57.44
2019-04-10T05:46:03.228Z,55.80
2019-04-10T05:48:33.957Z,56.11
2019-04-10T05:51:08.964Z,54.95
2019-04-10T05:53:40.864Z,55.31
2019-04-10T05:56:22.515Z,53.92
2019-04-10T05:58:53.251Z,54.90
2019-04-10T06:01:32.373Z,54.92
2019-04-10T06:03:56.839Z,53.97
2019-04-10T06:06:28.475Z,55.01
2019-04-10T06:09:12.176Z,54.44
2019-04-10T06:11:44.156Z,53.30
2019-04-10T06:14:22.149Z,53.67
2019-04-10T06:16:58.087Z,52.92
2019-04-10T06:19:28.840Z,52.93
2019-04-10T06:21:59.426Z,51.80
2019-04-10T06:24:36.395Z,50.82
2019-04-10T06:27:08.189Z,51.91
2019-04-10T06:29:44.576Z,51.66
2019-04-10T06:32:15.171Z,51.86
2019-04-10T06:34:46.138Z,51.51
2019-04-10T06:37:17.715Z,51.30
2019-04-10T06:39:49.475Z,50.34
2019-04-10T06:42:47.557Z,50.97
2019-04-10T06:45:13.196Z,51.07
2019-04-10T06:47:50.793Z,50.80
2019-04-10T06:50:21.623Z,51.04
2019-04-10T06:52:53.411Z,49.81
2019-04-10T06:55:39.275Z,50.38
2019-04-10T06:58:09.961Z,50.94
2019-04-10T07:00:41.080Z,50.65
2019-04-10T07:03:11.762Z,50.42
2019-04-10T07:05:56.273Z,50.71
2019-04-10T07:08:22.934Z,50.55
2019-04-10T07:11:04.742Z,49.82
2019-04-10T07:13:30.181Z,49.05
2019-04-10T07:16:09.534Z,49.46
2019-04-10T07:18:48.217Z,49.93
2019-04-10T07:21:22.172Z,50.02
2019-04-10T07:23:57.308Z,49.03
2019-04-10T07:26:39.651Z,49.05
2019-04-10T07:29:06.417Z,49.68
2019-04-10T07:31:39.418Z,48.35
2019-04-10T07:34:10.962Z,48.10
2019-04-10T07:36:43.523Z,48.03
2019-04-10T07:39:18.396Z,48.35
2019-04-10T07:41:51.534Z,47.70
2019-04-10T07:44:23.325Z,47.36
2019-04-10T07:46:55.270Z,48.53
2019-04-10T07:49:33.062Z,48.46
2019-04-10T07:52:05.771Z,48.01
2019-04-10T07:54:36.498Z,47.91
2019-04-10T07:57:08.295Z,48.16
2019-04-10T07:59:41.147Z,47.37
2019-04-10T08:02:17.583Z,48.65
2019-04-10T08:04:49.433Z,48.97
2019-04-10T08:07:31.265Z,48.78
2019-04-10T08:09:59.295Z,49.18
2019-04-10T08:12:39.480Z,48.77
2019-04-10T08:15:06.947Z,49.18
2019-04-10T08:17:41.095Z,48.68
2019-04-10T08:20:11.961Z,48.32
2019-04-10T08:22:42.847Z,49.06
2019-04-10T08:25:22.819Z,49.28
2019-04-10T08:27:54.328Z,48.51
2019-04-10T08:30:25.926Z,47.67
2019-04-10T08:33:01.002Z,47.64
2019-04-10T08:35:36.121Z,47.42
2019-04-10T08:38:07.690Z,47.64
2019-04-10T08:40:38.436Z,47.73
2019-04-10T08:43:10.031Z,47.70
2019-04-10T08:45:47.187Z,47.83
2019-04-10T08:48:15.554Z,46.68
2019-04-10T08:50:46.194Z,46.16
2019-04-10T08:53:18.118Z,45.46
2019-04-10T08:55:48.838Z,45.30
2019-04-10T08:58:20.803Z,45.74
2019-04-10T09:00:54.111Z,45.02
2019-04-10T09:03:30.923Z,45.28
2019-04-10T09:06:07.828Z,44.27
2019-04-10T09:08:42.115Z,43.60
2019-04-10T09:11:26.206Z,44.69
2019-04-10T09:13:52.779Z,44.48
2019-04-10T09:16:28.866Z,43.30
2019-04-10T09:19:01.593Z,43.51
2019-04-10T09:21:33.269Z,43.22
2019-04-10T09:24:10.231Z,43.27
2019-04-10T09:26:40.980Z,44.15
2019-04-10T09:29:13.999Z,42.71
2019-04-10T09:31:46.760Z,41.40
2019-04-10T09:34:17.951Z,43.30
2019-04-10T09:36:49.233Z,42.35
2019-04-10T09:39:20.569Z,42.29
2019-04-10T09:41:58.733Z,41.61
2019-04-10T09:44:33.686Z,41.79
2019-04-10T09:47:06.397Z,42.10
2019-04-10T09:49:45.895Z,41.92
2019-04-10T09:52:12.943Z,41.43
2019-04-10T09:54:47.307Z,41.64
2019-04-10T09:57:20.078Z,41.69
2019-04-10T09:59:50.945Z,42.00
2019-04-10T10:02:21.685Z,40.23
2019-04-10T10:04:53.589Z,40.09
2019-04-10T10:07:26.346Z,41.01
2019-04-10T10:09:59.706Z,41.25
2019-04-10T10:12:29.537Z,40.80
2019-04-10T10:15:03.511Z,39.95
2019-04-10T10:17:34.893Z,39.89
2019-04-10T10:20:11.927Z,39.76
2019-04-10T10:22:42.588Z,39.88
2019-04-10T10:25:13.405Z,40.77
2019-04-10T10:27:46.821Z,40.70
2019-04-10T10:30:17.824Z,40.74
2019-04-10T10:32:48.911Z,40.43
2019-04-10T10:35:20.604Z,39.99
2019-04-10T10:37:59.310Z,40.14
2019-04-10T10:40:33.951Z,39.74
2019-04-10T10:43:04.814Z,39.39
2019-04-10T10:45:42.819Z,39.22
2019-04-10T10:48:13.756Z,39.93
2019-04-10T10:50:45.860Z,40.16
2019-04-10T10:53:16.539Z,40.50
2019-04-10T10:55:48.296Z,40.34
2019-04-10T10:58:19.691Z,39.71
2019-04-10T11:00:55.725Z,40.56
2019-04-10T11:03:32.533Z,39.37
2019-04-10T11:06:08.866Z,39.84
2019-04-10T11:08:48.740Z,38.79
2019-04-10T11:11:22.584Z,38.96
2019-04-10T11:14:03.504Z,37.91
2019-04-10T11:16:35.305Z,38.08
2019-04-10T11:19:06.952Z,38.19
2019-04-10T11:21:39.007Z,38.33
2019-04-10T11:24:15.216Z,39.39
2019-04-10T11:26:52.232Z,39.32
2019-04-10T11:29:24.010Z,38.50
2019-04-10T11:31:55.926Z,38.58
2019-04-10T11:34:29.239Z,38.60
2019-04-10T11:37:18.181Z,39.73
2019-04-10T11:39:35.867Z,39.58
2019-04-10T11:42:09.972Z,38.51
2019-04-10T11:44:46.189Z,38.12
2019-04-10T11:47:15.269Z,38.16
2019-04-10T11:49:47.179Z,37.79
2019-04-10T11:52:27.497Z,37.43
2019-04-10T11:54:56.672Z,37.92
2019-04-10T11:57:30.798Z,37.69
2019-04-10T12:00:08.808Z,37.86
2019-04-10T12:02:57.864Z,38.00
2019-04-10T12:05:40.366Z,37.34
2019-04-10T12:08:33.607Z,37.31
2019-04-10T12:13:24.160Z,35.90
2019-04-10T12:15:58.931Z,36.38
2019-04-10T12:18:40.531Z,35.36
2019-04-10T12:21:15.719Z,35.22
2019-04-10T12:23:57.642Z,35.97
2019-04-10T12:26:35.903Z,35.44
2019-04-10T12:29:06.752Z,35.00
2019-04-10T12:31:37.392Z,35.82
2019-04-10T12:34:10.776Z,36.40
2019-04-10T12:36:47.090Z,36.29
2019-04-10T12:39:24.640Z,36.88
2019-04-10T12:42:00.956Z,36.33
2019-04-10T12:44:40.868Z,37.07
2019-04-10T12:47:11.690Z,36.71
2019-04-10T12:49:42.246Z,35.94
2019-04-10T12:52:12.987Z,35.61
2019-04-10T12:54:49.708Z,33.49
2019-04-10T12:57:23.843Z,34.22
2019-04-10T12:59:59.900Z,35.57
2019-04-10T13:02:31.686Z,35.43
2019-04-10T13:05:11.321Z,36.20
2019-04-10T13:07:42.128Z,35.28
2019-04-10T13:10:21.858Z,35.81
2019-04-10T13:12:53.478Z,35.69
2019-04-10T13:15:32.138Z,33.96
2019-04-10T13:18:03.755Z,33.83
2019-04-10T13:20:34.690Z,33.91
2019-04-10T13:23:06.585Z,33.78
2019-04-10T13:25:42.782Z,34.58
2019-04-10T13:28:15.112Z,35.80
2019-04-10T13:30:51.549Z,34.59
2019-04-10T13:33:21.101Z,33.97
2019-04-10T13:36:03.131Z,34.18
2019-04-10T13:38:50.538Z,33.95
2019-04-10T13:41:21.942Z,33.75
2019-04-10T13:44:02.676Z,34.10
2019-04-10T13:46:33.801Z,34.85
2019-04-10T13:49:06.058Z,34.17
2019-04-10T13:51:39.304Z,34.79
2019-04-10T13:54:16.530Z,34.14
2019-04-10T13:56:52.913Z,33.20
2019-04-10T13:59:24.787Z,32.81
2019-04-10T14:02:00.547Z,33.48
2019-04-10T14:04:33.378Z,33.68
2019-04-10T14:07:09.738Z,32.93
2019-04-10T14:09:51.992Z,32.67
2019-04-10T14:12:24.994Z,33.12
2019-04-10T14:15:01.548Z,33.64
2019-04-10T14:17:35.411Z,33.61
2019-04-10T14:20:15.142Z,33.01
2019-04-10T14:22:55.986Z,32.99
2019-04-10T14:25:54.371Z,33.17
2019-04-10T14:28:38.466Z,32.81
2019-04-10T14:31:23.101Z,33.79
2019-04-10T14:34:06.633Z,33.85
2019-04-10T14:37:11.422Z,33.93
2019-04-10T14:39:47.592Z,34.14
2019-04-10T14:42:19.223Z,32.66
2019-04-10T14:44:53.005Z,32.81
2019-04-10T14:47:31.848Z,31.83
2019-04-10T14:50:04.986Z,31.95
2019-04-10T14:52:38.815Z,31.91
2019-04-10T14:55:16.572Z,33.14
2019-04-10T14:57:53.118Z,33.37
2019-04-10T15:00:32.904Z,34.50
2019-04-10T15:03:04.418Z,34.58
2019-04-10T15:05:47.592Z,33.45
2019-04-10T15:08:14.183Z,34.25
2019-04-10T15:10:47.571Z,33.96
2019-04-10T15:13:22.447Z,34.51
2019-04-10T15:15:52.834Z,34.85
2019-04-10T15:18:25.047Z,34.94
2019-04-10T15:20:59.325Z,34.07
2019-04-10T15:23:30.099Z,33.24
2019-04-10T15:26:01.839Z,33.55
2019-04-10T15:28:33.962Z,33.49
2019-04-10T15:31:06.843Z,33.68
2019-04-10T15:33:46.635Z,33.94
2019-04-10T15:36:25.144Z,34.39
2019-04-10T15:39:00.332Z,34.61
2019-04-10T15:41:32.984Z,34.24
2019-04-10T15:44:05.853Z,35.41
2019-04-10T15:46:45.650Z,35.43
2019-04-10T15:49:19.452Z,37.27
2019-04-10T15:51:53.226Z,34.39
2019-04-10T15:54:25.690Z,33.71
2019-04-10T15:57:01.106Z,33.91
2019-04-10T15:59:32.640Z,34.75
2019-04-10T16:02:07.843Z,34.87
2019-04-10T16:04:40.315Z,35.55
2019-04-10T16:07:14.149Z,35.21
2019-04-10T16:09:52.185Z,35.76
2019-04-10T16:12:24.828Z,36.19
2019-04-10T16:14:57.062Z,35.88
2019-04-10T16:17:51.307Z,35.20
2019-04-10T16:20:29.449Z,34.79
2019-04-10T16:23:08.154Z,35.11
2019-04-10T16:25:43.268Z,35.33
2019-04-10T16:28:24.308Z,35.48
2019-04-10T16:30:57.210Z,36.05
2019-04-10T16:33:39.078Z,37.71
2019-04-10T16:36:13.030Z,35.52
2019-04-10T16:38:44.961Z,35.02
2019-04-10T16:41:19.724Z,35.36
2019-04-10T16:43:54.911Z,35.48
2019-04-10T16:46:27.841Z,35.49
2019-04-10T16:49:01.575Z,35.73
2019-04-10T16:51:32.369Z,36.33
2019-04-10T16:54:13.809Z,36.55
2019-04-10T16:56:47.882Z,36.35
2019-04-10T16:59:22.189Z,36.13
2019-04-10T17:01:57.478Z,36.76
2019-04-10T17:04:31.953Z,36.53
2019-04-10T17:07:03.302Z,36.84
2019-04-10T17:09:43.856Z,36.20
2019-04-10T17:12:16.243Z,36.92
2019-04-10T17:14:47.818Z,36.15
2019-04-10T17:17:20.159Z,36.85
2019-04-10T17:19:57.542Z,36.30
2019-04-10T17:22:34.363Z,36.23
2019-04-10T17:25:02.307Z,36.54
2019-04-10T17:27:35.351Z,36.72
2019-04-10T17:30:11.562Z,37.35
2019-04-10T17:32:43.017Z,37.61
2019-04-10T17:35:16.790Z,36.72
2019-04-10T17:37:47.964Z,35.93
2019-04-10T17:40:29.967Z,36.11
2019-04-10T17:42:54.752Z,35.73
2019-04-10T17:45:40.285Z,36.18
2019-04-10T17:48:11.725Z,36.88
2019-04-10T17:50:47.847Z,37.32
2019-04-10T17:53:21.129Z,37.40
2019-04-10T17:55:52.215Z,37.71
2019-04-10T17:58:37.914Z,36.63
2019-04-10T18:01:17.234Z,36.27
2019-04-10T18:03:55.416Z,36.51
2019-04-10T18:06:31.134Z,36.17
2019-04-10T18:09:09.732Z,36.79
2019-04-10T18:11:43.514Z,37.17
2019-04-10T18:14:15.330Z,36.95
2019-04-10T18:16:49.915Z,36.90
2019-04-10T18:19:21.349Z,37.45
2019-04-10T18:21:54.210Z,37.60
2019-04-10T18:24:30.451Z,37.67
2019-04-10T18:27:01.599Z,38.56
2019-04-10T18:29:36.157Z,37.44
2019-04-10T18:32:09.725Z,37.81
2019-04-10T18:34:42.415Z,38.00
2019-04-10T18:37:22.038Z,36.70
2019-04-10T18:39:50.731Z,37.34
2019-04-10T18:42:26.701Z,36.76
2019-04-10T18:45:00.160Z,37.23
2019-04-10T18:47:32.845Z,37.41
2019-04-10T18:50:06.362Z,37.09
2019-04-10T18:52:37.657Z,38.01
2019-04-10T18:55:10.155Z,37.31
2019-04-10T18:57:43.197Z,37.46
2019-04-10T19:00:40.621Z,37.11
2019-04-10T19:03:27.605Z,36.88
2019-04-10T19:06:13.227Z,36.95
2019-04-10T19:08:46.187Z,37.44
2019-04-10T19:11:22.877Z,38.11
2019-04-10T19:13:51.222Z,37.55
2019-04-10T19:16:23.510Z,38.09
2019-04-10T19:18:56.941Z,38.18
2019-04-10T19:21:32.536Z,37.82
2019-04-10T19:24:09.880Z,37.59
2019-04-10T19:26:40.970Z,37.63
2019-04-10T19:29:17.138Z,38.01
2019-04-10T19:31:50.020Z,37.95
2019-04-10T19:34:27.524Z,38.42
2019-04-10T19:37:00.557Z,38.49
2019-04-10T19:39:40.402Z,39.15
2019-04-10T19:42:13.789Z,39.25
2019-04-10T19:44:45.992Z,39.44
2019-04-10T19:47:17.937Z,38.93
2019-04-10T19:49:55.354Z,38.47
2019-04-10T19:52:32.850Z,38.63
2019-04-10T19:55:17.506Z,38.42
2019-04-10T19:57:49.785Z,38.59
2019-04-10T20:00:31.161Z,38.27
2019-04-10T20:03:07.804Z,38.70
2019-04-10T20:05:39.359Z,38.84
2019-04-10T20:08:12.775Z,39.34
2019-04-10T20:10:43.717Z,39.37
2019-04-10T20:13:16.605Z,39.32
2019-04-10T20:15:48.832Z,39.34
2019-04-10T20:18:24.506Z,39.45
2019-04-10T20:20:56.594Z,40.10
2019-04-10T20:23:40.368Z,40.42
2019-04-10T20:26:25.251Z,40.40
2019-04-10T20:28:57.653Z,40.59
2019-04-10T20:31:34.548Z,39.85
2019-04-10T20:34:09.698Z,40.55
2019-04-10T20:36:49.099Z,40.55
2019-04-10T20:39:37.060Z,40.15
2019-04-10T20:42:12.716Z,40.43
2019-04-10T20:44:43.604Z,40.84
2019-04-10T20:47:22.618Z,40.47
2019-04-10T20:49:56.323Z,41.13
2019-04-10T20:52:28.452Z,40.82
2019-04-10T20:54:59.479Z,41.15
2019-04-10T20:57:35.329Z,41.01
2019-04-10T21:00:09.386Z,40.85
2019-04-10T21:02:42.653Z,41.00
2019-04-10T21:05:19.869Z,41.28
2019-04-10T21:07:59.683Z,42.23
2019-04-10T21:10:33.692Z,42.31
2019-04-10T21:13:04.922Z,40.98
2019-04-10T21:15:37.599Z,41.40
2019-04-10T21:18:08.330Z,40.76
2019-04-10T21:20:39.049Z,40.74
2019-04-10T21:23:19.577Z,40.47
2019-04-10T21:25:50.427Z,40.98
2019-04-10T21:28:22.492Z,40.97
2019-04-10T21:31:09.705Z,42.07
2019-04-10T21:33:42.941Z,40.55
2019-04-10T21:36:26.187Z,40.81
2019-04-10T21:39:01.058Z,40.63
2019-04-10T21:41:34.521Z,41.38
2019-04-10T21:44:06.405Z,41.80
2019-04-10T21:47:14.260Z,40.85
2019-04-10T21:49:54.984Z,40.59
2019-04-10T21:52:36.464Z,40.41
2019-04-10T21:55:19.167Z,40.36
2019-04-10T21:57:55.767Z,40.81
2019-04-10T22:01:01.614Z,40.46
2019-04-10T22:03:57.047Z,40.71
2019-04-10T22:06:30.196Z,40.76
2019-04-10T22:09:12.514Z,40.85
2019-04-10T22:11:51.409Z,41.21
2019-04-10T22:14:28.201Z,41.35
2019-04-10T22:17:07.020Z,41.63
2019-04-10T22:19:39.570Z,41.60
2019-04-10T22:22:11.439Z,41.97
2019-04-10T22:24:43.328Z,41.53
2019-04-10T22:27:20.918Z,41.45
2019-04-10T22:29:52.955Z,42.60
2019-04-10T22:32:39.161Z,42.59
2019-04-10T22:35:12.686Z,42.28
2019-04-10T22:37:44.072Z,42.62
2019-04-10T22:40:19.154Z,42.62
2019-04-10T22:42:57.458Z,43.93
2019-04-10T22:45:31.120Z,43.76
2019-04-10T22:48:08.255Z,43.68
2019-04-10T22:50:40.954Z,43.74
2019-04-10T22:53:11.656Z,43.72
2019-04-10T22:55:44.518Z,44.06
2019-04-10T22:58:15.119Z,44.86
2019-04-10T23:01:04.906Z,44.41
2019-04-10T23:03:36.629Z,45.03
2019-04-10T23:06:09.508Z,44.86
2019-04-10T23:08:40.125Z,45.65
2019-04-10T23:11:10.841Z,45.87
2019-04-10T23:13:42.511Z,45.86
2019-04-10T23:16:19.909Z,45.18
2019-04-10T23:19:03.685Z,46.03
2019-04-10T23:21:34.472Z,45.91
2019-04-10T23:24:05.490Z,45.68
2019-04-10T23:26:37.405Z,45.73
2019-04-10T23:29:08.429Z,46.21
2019-04-10T23:31:41.633Z,46.36
2019-04-10T23:34:20.827Z,46.46
2019-04-10T23:36:59.816Z,47.60
2019-04-10T23:39:36.655Z,48.32
2019-04-10T23:42:07.594Z,48.66
2019-04-10T23:44:49.073Z,48.53
2019-04-10T23:47:20.144Z,48.95
2019-04-10T23:49:55.427Z,48.60
2019-04-10T23:52:26.110Z,49.05
2019-04-10T23:54:57.582Z,48.75
2019-04-10T23:57:29.383Z,49.11
